Arbyrd, MO

4:08 AM CDT on August 02, 2014 (GMT -0500)
KC0UFP WX (KMOKENNE4) Elev 262 ft | 36.21 °N, 90.07 °W | Change Station

Current weather conditions updated 30 seconds ago

Clear
Clear
67.3 °F
Feels Like 67.3 °F
N
0.0
Wind Variable Wind from ENE

Today is forecast to be Cooler than yesterday.

Today
High -- | Low -- °F
--% Chance of Precip.
Yesterday
High -- | Low -- °F
Precip. -- in
6:08 AM 8:04 PM
Waxing Crescent, 34% visible
Pressure 30.04 in
Visibility 8.0 miles
Clouds Clear
Dew Point 64 °F
Humidity 90%
Rainfall 0.00 in
Snow Depth Not available.
UV 0 out of 12
Pollen 6.60 out of 12
Air Quality Not available.
Flu Activity Not available.
METAR KHKA 020853Z AUTO 32004KT 8SM CLR 19/18 A3004 RMK AO2 SLP171 T01890178 57001 $

More Conditions Fewer Conditions

Pressure 30.04 in
Visibility 8.0 miles
Clouds Clear
Dew Point 64 °F
Humidity 90%
Rainfall 0.00 in
Snow Depth Not available.
UV 0 out of 12
Pollen 6.60 out of 12
Air Quality Not available.
Flu Activity Not available.
METAR KHKA 020853Z AUTO 32004KT 8SM CLR 19/18 A3004 RMK AO2 SLP171 T01890178 57001 $

More Conditions Fewer Conditions

10-Day Weather Forecast

Almanac

Astronomy

Aug. 02, 2014 Rise Set
Actual Time 6:08 AM CDT 8:04 PM CDT
Civil Twilight 5:40 AM CDT 8:32 PM CDT
Nautical Twilight 5:06 AM CDT 9:07 PM CDT
Astronomical Twilight 4:29 AM CDT 9:43 PM CDT
Moon 12:17 PM CDT 11:37 PM CDT
Length of Visible Light 14h 52m
Length of Day
13h 56m
Tomorrow will be 1m 45s shorter.
Waxing Crescent, 34% of the Moon is Illuminated
Today
Waxing Crescent
Aug 3
First Quarter
Aug 10
Full
Aug 17
Last Quarter
Aug 25
New

Today's Extremes

State Highs State Lows

Community

WunderPhotos

Upload Photos

1,739,850 photos uploaded!

Nearby

Snow Depth

Station Depth Elevation
No new snow has been reported.

Earthquake Activity

City Distance Mag. Time & Date
No recent earthquake activity has been reported nearby.
Minimum magnitude displayed is 2.5.

Coastal Water Temperatures

Place Temperature
No Stations Reporting

Nearby Weather Stations

Station Location Temp. Dew Point Humidity Wind Precip. Elev Updated Type
KC0UFP WX, Kennett, MO 67.3 °F 64 °F 90% ENE  at  0.0 mph - / hr 262 ft 4:08 AM CDT Normal
MesoWest MARDUK , Marmaduke, AR 68 °F - - North  at  - 0.00 in / hr 272 ft 2:00 AM CDT MADIS
Kennett E911, Kennett, MO 69.2 °F 66 °F 89% NNE  at  1.0 mph 0.00 in / hr 262 ft 4:08 AM CDT Rapid Fire
MesoWest GRNWAY , Rector, AR 65 °F - - North  at  - 0.00 in / hr 293 ft 1:50 AM CDT MADIS
William White Subdivision, Paragould, AR 67.8 °F 68 °F 99% SW  at  0.0 mph 0.00 in / hr 331 ft 4:08 AM CDT Rapid Fire
Carriage Hill, Paragould, AR 70.0 °F 66 °F 86% NW  at  2.7 mph 0.00 in / hr 300 ft 3:52 AM CDT Rapid Fire
MesoWest BETHEL , Brookland, AR 65 °F - - North  at  - 0.00 in / hr 288 ft 3:15 AM CDT MADIS
Peach Orchard, Gideon, MO 67.0 °F 64 °F 91% NNE  at  3.0 mph 0.00 in / hr 263 ft 4:08 AM CDT Rapid Fire

Show More Stations Show Fewer Stations